createdAt,value
2019-04-06T00:00:33.910Z,28.65
2019-04-06T00:03:05.108Z,28.20
2019-04-06T00:05:36.136Z,30.40
2019-04-06T00:08:07.122Z,28.47
2019-04-06T00:10:39.096Z,30.90
2019-04-06T00:13:10.031Z,32.20
2019-04-06T00:15:41.001Z,31.17
2019-04-06T00:18:12.938Z,30.37
2019-04-06T00:20:44.127Z,30.23
2019-04-06T00:23:15.080Z,28.77
2019-04-06T00:25:46.087Z,32.15
2019-04-06T00:28:17.078Z,31.45
2019-04-06T00:30:55.674Z,31.73
2019-04-06T00:33:28.184Z,28.85
2019-04-06T00:35:59.165Z,29.37
2019-04-06T00:38:30.172Z,28.90
2019-04-06T00:41:02.338Z,27.73
2019-04-06T00:43:33.272Z,26.70
2019-04-06T00:46:04.255Z,28.17
2019-04-06T00:48:35.200Z,27.90
2019-04-06T00:51:06.234Z,27.90
2019-04-06T00:53:37.169Z,29.05
2019-04-06T00:56:08.233Z,31.02
2019-04-06T00:58:39.326Z,30.90
2019-04-06T01:01:10.295Z,32.10
2019-04-06T01:03:41.235Z,31.33
2019-04-06T01:06:12.197Z,31.80
2019-04-06T01:08:43.159Z,31.87
2019-04-06T01:11:14.206Z,30.48
2019-04-06T01:13:45.154Z,31.23
2019-04-06T01:16:17.122Z,32.28
2019-04-06T01:18:48.087Z,30.77
2019-04-06T01:21:19.022Z,31.42
2019-04-06T01:23:49.992Z,31.75
2019-04-06T01:26:20.931Z,31.55
2019-04-06T01:28:51.900Z,30.75
2019-04-06T01:31:22.936Z,31.20
2019-04-06T01:33:53.897Z,32.75
2019-04-06T01:36:24.839Z,31.77
2019-04-06T01:38:56.007Z,31.10
2019-04-06T01:41:27.108Z,31.17
2019-04-06T01:43:58.257Z,30.50
2019-04-06T01:46:29.308Z,32.65
2019-04-06T01:49:00.315Z,34.73
2019-04-06T01:51:31.402Z,30.15
2019-04-06T01:54:02.447Z,31.00
2019-04-06T01:56:33.496Z,32.15
2019-04-06T01:59:04.660Z,30.68
2019-04-06T02:01:37.200Z,30.88
2019-04-06T02:04:08.489Z,31.62
2019-04-06T02:06:39.508Z,32.03
2019-04-06T02:09:10.442Z,32.95
2019-04-06T02:11:41.447Z,35.10
2019-04-06T02:14:12.388Z,36.85
2019-04-06T02:16:45.140Z,36.68
2019-04-06T02:19:16.260Z,36.53
2019-04-06T02:21:49.202Z,35.50
2019-04-06T02:24:20.172Z,36.55
2019-04-06T02:26:51.256Z,36.75
2019-04-06T02:29:22.230Z,35.23
2019-04-06T02:32:02.157Z,33.90
2019-04-06T02:34:32.969Z,33.85
2019-04-06T02:37:05.620Z,32.85
2019-04-06T02:39:39.263Z,32.65
2019-04-06T02:42:12.021Z,35.15
2019-04-06T02:44:43.035Z,35.35
2019-04-06T02:47:14.084Z,34.15
2019-04-06T02:49:47.008Z,34.05
2019-04-06T02:52:18.138Z,31.57
2019-04-06T02:54:49.105Z,36.60
2019-04-06T02:57:20.089Z,33.60
2019-04-06T02:59:51.101Z,32.65
2019-04-06T03:02:22.088Z,32.73
2019-04-06T03:04:54.078Z,32.03
2019-04-06T03:07:25.020Z,31.35
2019-04-06T03:09:56.040Z,32.42
2019-04-06T03:12:27.058Z,33.28
2019-04-06T03:14:58.697Z,30.95
2019-04-06T03:17:29.670Z,31.77
2019-04-06T03:20:01.620Z,32.45
2019-04-06T03:22:32.698Z,33.20
2019-04-06T03:25:04.077Z,33.53
2019-04-06T03:27:35.046Z,37.05
2019-04-06T03:30:08.942Z,36.95
2019-04-06T03:32:40.332Z,36.60
2019-04-06T03:35:12.186Z,34.83
2019-04-06T03:37:43.234Z,35.30
2019-04-06T03:40:14.517Z,33.95
2019-04-06T03:42:45.473Z,35.10
2019-04-06T03:45:16.452Z,32.30
2019-04-06T03:47:47.425Z,35.05
2019-04-06T03:50:18.377Z,35.65
2019-04-06T03:52:50.447Z,35.52
2019-04-06T03:55:21.483Z,34.25
2019-04-06T03:57:52.483Z,36.33
2019-04-06T04:00:23.485Z,38.67
2019-04-06T04:02:54.460Z,37.03
2019-04-06T04:05:25.403Z,36.13
2019-04-06T04:07:56.678Z,35.80
2019-04-06T04:10:37.024Z,35.10
2019-04-06T04:13:07.993Z,40.85
2019-04-06T04:15:39.258Z,40.98
2019-04-06T04:18:10.436Z,41.53
2019-04-06T04:20:41.430Z,41.98
2019-04-06T04:23:12.337Z,43.38
2019-04-06T04:25:43.282Z,40.10
2019-04-06T04:28:14.249Z,79.10
2019-04-06T04:30:45.223Z,69.20
2019-04-06T04:33:16.419Z,39.40
2019-04-06T04:35:47.505Z,35.75
2019-04-06T04:38:18.489Z,34.43
2019-04-06T04:40:49.421Z,37.48
2019-04-06T04:43:20.400Z,34.35
2019-04-06T04:45:51.442Z,37.60
2019-04-06T04:48:22.373Z,34.63
2019-04-06T04:50:53.347Z,37.25
2019-04-06T04:53:24.404Z,34.15
2019-04-06T04:55:55.434Z,36.45
2019-04-06T04:58:26.610Z,35.58
2019-04-06T05:00:57.655Z,36.85
2019-04-06T05:03:28.599Z,35.85
2019-04-06T05:06:00.575Z,34.70
2019-04-06T05:08:31.668Z,36.05
2019-04-06T05:11:02.693Z,34.43
2019-04-06T05:13:33.832Z,35.60
2019-04-06T05:16:13.741Z,35.98
2019-04-06T05:18:45.005Z,33.40
2019-04-06T05:21:15.943Z,36.73
2019-04-06T05:23:46.911Z,34.85
2019-04-06T05:26:17.884Z,80.15
2019-04-06T05:28:48.828Z,38.83
2019-04-06T05:31:19.798Z,35.30
2019-04-06T05:33:50.779Z,35.13
2019-04-06T05:36:21.728Z,33.08
2019-04-06T05:38:52.933Z,36.13
2019-04-06T05:41:24.007Z,32.23
2019-04-06T05:43:54.982Z,36.48
2019-04-06T05:46:25.958Z,35.65
2019-04-06T05:48:56.899Z,36.58
2019-04-06T05:51:27.921Z,35.75
2019-04-06T05:53:58.902Z,36.73
2019-04-06T05:56:29.832Z,37.48
2019-04-06T05:59:00.901Z,37.70
2019-04-06T06:01:31.864Z,38.70
2019-04-06T06:04:02.806Z,110.48
2019-04-06T06:06:33.777Z,45.43
2019-04-06T06:09:06.817Z,37.63
2019-04-06T06:11:38.113Z,35.60
2019-04-06T06:14:10.180Z,39.80
2019-04-06T06:16:41.321Z,33.25
2019-04-06T06:19:12.383Z,35.80
2019-04-06T06:21:43.344Z,35.60
2019-04-06T06:24:14.282Z,35.90
2019-04-06T06:26:45.247Z,35.58
2019-04-06T06:29:16.217Z,37.20
2019-04-06T06:31:47.158Z,34.15
2019-04-06T06:34:18.128Z,36.80
2019-04-06T06:36:49.098Z,34.40
2019-04-06T06:39:20.040Z,37.55
2019-04-06T06:41:51.012Z,38.35
2019-04-06T06:44:21.970Z,36.68
2019-04-06T06:46:52.917Z,35.08
2019-04-06T06:49:23.884Z,41.18
2019-04-06T06:51:54.945Z,37.40
2019-04-06T06:54:25.976Z,38.38
2019-04-06T06:56:56.943Z,40.25
2019-04-06T06:59:27.994Z,38.85
2019-04-06T07:01:59.000Z,40.58
2019-04-06T07:04:30.202Z,40.95
2019-04-06T07:07:01.141Z,37.98
2019-04-06T07:09:32.084Z,42.75
2019-04-06T07:12:03.118Z,42.35
2019-04-06T07:14:34.213Z,39.20
2019-04-06T07:17:05.146Z,37.45
2019-04-06T07:19:36.117Z,37.73
2019-04-06T07:22:07.079Z,41.80
2019-04-06T07:24:38.019Z,40.92
2019-04-06T07:27:09.000Z,40.55
2019-04-06T07:29:39.977Z,40.52
2019-04-06T07:32:10.923Z,41.10
2019-04-06T07:34:41.895Z,40.08
2019-04-06T07:37:13.146Z,40.35
2019-04-06T07:39:44.101Z,42.33
2019-04-06T07:42:15.072Z,41.18
2019-04-06T07:44:46.056Z,44.25
2019-04-06T07:47:17.147Z,40.58
2019-04-06T07:49:48.150Z,45.63
2019-04-06T07:52:19.195Z,40.55
2019-04-06T07:54:50.128Z,42.60
2019-04-06T07:57:21.235Z,43.35
2019-04-06T07:59:52.227Z,39.70
2019-04-06T08:02:23.173Z,44.15
2019-04-06T08:04:54.160Z,44.85
2019-04-06T08:07:25.404Z,41.10
2019-04-06T08:09:56.592Z,43.87
2019-04-06T08:12:27.768Z,42.40
2019-04-06T08:14:58.835Z,42.65
2019-04-06T08:17:30.991Z,45.80
2019-04-06T08:20:01.977Z,40.83
2019-04-06T08:22:34.061Z,42.10
2019-04-06T08:25:06.641Z,42.67
2019-04-06T08:27:37.704Z,39.58
2019-04-06T08:30:11.157Z,43.45
2019-04-06T08:32:42.245Z,42.40
2019-04-06T08:35:24.802Z,44.80
2019-04-06T08:37:46.839Z,43.73
2019-04-06T08:40:17.931Z,41.30
2019-04-06T08:42:49.071Z,41.25
2019-04-06T08:45:20.471Z,41.28
2019-04-06T08:47:51.553Z,42.10
2019-04-06T08:50:22.593Z,41.92
2019-04-06T08:52:53.665Z,40.12
2019-04-06T08:55:24.656Z,40.90
2019-04-06T08:57:55.612Z,41.60
2019-04-06T09:00:26.606Z,40.85
2019-04-06T09:02:57.578Z,40.95
2019-04-06T09:05:28.526Z,47.10
2019-04-06T09:07:59.509Z,38.28
2019-04-06T09:10:30.500Z,40.00
2019-04-06T09:13:01.532Z,69.03
2019-04-06T09:15:32.546Z,37.93
2019-04-06T09:18:03.513Z,41.50
2019-04-06T09:20:34.582Z,50.15
2019-04-06T09:23:05.648Z,41.37
2019-04-06T09:25:37.015Z,36.60
2019-04-06T09:28:08.164Z,36.40
2019-04-06T09:30:39.400Z,34.15
2019-04-06T09:33:10.679Z,40.52
2019-04-06T09:35:41.746Z,35.35
2019-04-06T09:38:20.854Z,56.33
2019-04-06T09:40:52.576Z,42.40
2019-04-06T09:43:23.772Z,36.45
2019-04-06T09:46:14.681Z,33.95
2019-04-06T09:48:47.352Z,207.92
2019-04-06T09:51:18.023Z,33.95
2019-04-06T09:53:51.679Z,31.85
2019-04-06T09:56:33.160Z,38.98
2019-04-06T09:59:06.754Z,34.80
2019-04-06T10:01:48.605Z,35.70
2019-04-06T10:04:22.185Z,36.68
2019-04-06T10:07:10.352Z,36.15
2019-04-06T10:09:50.506Z,35.68
2019-04-06T10:12:39.325Z,36.68
2019-04-06T10:15:16.901Z,34.05
2019-04-06T10:18:06.048Z,27.47
2019-04-06T10:20:39.669Z,29.37
2019-04-06T10:23:28.545Z,29.60
2019-04-06T10:26:17.399Z,30.47
2019-04-06T10:29:00.161Z,31.27
2019-04-06T10:31:30.844Z,29.30
2019-04-06T10:34:19.763Z,27.67
2019-04-06T10:36:55.331Z,31.23
2019-04-06T10:39:26.012Z,28.53
2019-04-06T10:41:56.694Z,30.63
2019-04-06T10:44:29.207Z,29.40
2019-04-06T10:47:18.200Z,28.50
2019-04-06T10:49:54.029Z,24.10
2019-04-06T10:52:32.820Z,26.07
2019-04-06T10:55:18.413Z,27.97
2019-04-06T10:58:00.271Z,29.13
2019-04-06T11:00:50.186Z,26.70
2019-04-06T11:03:25.895Z,29.10
2019-04-06T11:06:00.242Z,27.70
2019-04-06T11:08:31.204Z,31.70
2019-04-06T11:11:03.967Z,27.70
2019-04-06T11:13:42.903Z,27.07
2019-04-06T11:16:18.427Z,27.93
2019-04-06T11:18:55.023Z,27.53
2019-04-06T11:21:28.912Z,28.77
2019-04-06T11:24:15.149Z,28.37
2019-04-06T11:27:01.222Z,26.43
2019-04-06T11:29:51.669Z,26.43
2019-04-06T11:32:24.293Z,26.53
2019-04-06T11:34:58.109Z,26.20
2019-04-06T11:37:28.928Z,26.70
2019-04-06T11:39:59.694Z,24.90
2019-04-06T11:42:48.127Z,27.77
2019-04-06T11:45:23.836Z,26.63
2019-04-06T11:47:59.776Z,28.23
2019-04-06T11:50:35.239Z,27.10
2019-04-06T11:53:07.895Z,27.03
2019-04-06T11:55:49.437Z,23.60
2019-04-06T11:58:24.781Z,23.30
2019-04-06T12:01:13.931Z,23.47
2019-04-06T12:03:46.557Z,23.77
2019-04-06T12:06:35.659Z,24.17
2019-04-06T12:09:26.246Z,24.30
2019-04-06T12:12:14.959Z,23.97
2019-04-06T12:14:51.865Z,23.60
2019-04-06T12:17:24.391Z,23.47
2019-04-06T12:20:03.185Z,23.73
2019-04-06T12:22:38.711Z,26.83
2019-04-06T12:25:17.394Z,23.70
2019-04-06T12:27:50.876Z,24.13
2019-04-06T12:30:40.169Z,21.50
2019-04-06T12:33:19.795Z,20.50
2019-04-06T12:36:01.210Z,21.30
2019-04-06T12:38:39.826Z,20.03
2019-04-06T12:41:18.377Z,19.97
2019-04-06T12:44:03.236Z,22.30
2019-04-06T12:46:36.809Z,21.00
2019-04-06T12:49:12.308Z,26.23
2019-04-06T12:51:54.056Z,22.43
2019-04-06T12:54:26.631Z,20.07
2019-04-06T12:57:15.605Z,18.97
2019-04-06T13:00:05.047Z,18.80
2019-04-06T13:02:40.507Z,18.10
2019-04-06T13:05:23.475Z,18.50
2019-04-06T13:08:12.211Z,17.97
2019-04-06T13:10:48.683Z,18.07
2019-04-06T13:13:22.686Z,20.00
2019-04-06T13:15:55.278Z,19.80
2019-04-06T13:18:33.883Z,17.07
2019-04-06T13:21:09.324Z,15.83
2019-04-06T13:23:40.045Z,15.70
2019-04-06T13:26:24.290Z,13.47
2019-04-06T13:29:08.911Z,11.83
2019-04-06T13:31:58.657Z,12.97
2019-04-06T13:34:40.625Z,11.50
2019-04-06T13:37:13.373Z,10.50
2019-04-06T13:39:56.434Z,10.07
2019-04-06T13:42:44.120Z,10.27
2019-04-06T13:45:25.683Z,11.50
2019-04-06T13:48:06.798Z,11.33
2019-04-06T13:50:39.388Z,9.70
2019-04-06T13:53:12.247Z,11.30
2019-04-06T13:56:01.056Z,12.30
2019-04-06T13:58:36.454Z,11.30
2019-04-06T14:01:17.476Z,9.70
2019-04-06T14:03:51.210Z,8.93
2019-04-06T14:06:24.989Z,9.30
2019-04-06T14:09:06.720Z,7.77
2019-04-06T14:11:55.857Z,7.30
2019-04-06T14:14:34.673Z,9.43
2019-04-06T14:17:16.231Z,9.47
2019-04-06T14:19:58.199Z,8.90
2019-04-06T14:22:38.631Z,8.57
2019-04-06T14:25:11.582Z,7.57
2019-04-06T14:28:01.519Z,9.20
2019-04-06T14:30:43.383Z,9.47
2019-04-06T14:33:29.331Z,9.03
2019-04-06T14:36:03.004Z,9.00
2019-04-06T14:38:52.011Z,8.00
2019-04-06T14:41:27.710Z,8.33
2019-04-06T14:44:06.007Z,7.60
2019-04-06T14:46:41.847Z,8.07
2019-04-06T14:49:28.868Z,8.47
2019-04-06T14:51:52.729Z,8.53
2019-04-06T14:54:42.724Z,7.87
2019-04-06T14:57:21.531Z,7.23
2019-04-06T14:59:54.965Z,9.17
2019-04-06T15:02:37.653Z,7.63
2019-04-06T15:05:23.932Z,6.80
2019-04-06T15:08:00.749Z,6.13
2019-04-06T15:10:36.294Z,6.00
2019-04-06T15:13:28.606Z,7.10
2019-04-06T15:16:04.257Z,8.00
2019-04-06T15:18:43.009Z,7.30
2019-04-06T15:21:14.069Z,7.23
2019-04-06T15:23:51.584Z,7.20
2019-04-06T15:26:23.242Z,7.13
2019-04-06T15:29:00.842Z,7.80
2019-04-06T15:31:50.369Z,6.67
2019-04-06T15:34:22.419Z,6.73
2019-04-06T15:37:03.196Z,7.80
2019-04-06T15:39:43.414Z,7.57
2019-04-06T15:42:32.257Z,7.10
2019-04-06T15:45:11.922Z,6.57
2019-04-06T15:47:48.002Z,7.00
2019-04-06T15:50:18.737Z,7.23
2019-04-06T15:52:57.046Z,7.60
2019-04-06T15:55:38.849Z,7.33
2019-04-06T15:58:11.756Z,7.20
2019-04-06T16:00:45.355Z,7.13
2019-04-06T16:03:16.336Z,6.50
2019-04-06T16:06:05.360Z,6.13
2019-04-06T16:08:53.003Z,10.50
2019-04-06T16:11:25.540Z,5.40
2019-04-06T16:13:59.138Z,6.13
2019-04-06T16:16:32.565Z,6.70
2019-04-06T16:19:10.811Z,5.00
2019-04-06T16:21:46.110Z,5.30
2019-04-06T16:24:30.504Z,4.70
2019-04-06T16:27:03.452Z,6.37
2019-04-06T16:29:34.283Z,20.37
2019-04-06T16:32:18.849Z,9.63
2019-04-06T16:34:57.589Z,15.00
2019-04-06T16:37:46.795Z,8.43
2019-04-06T16:40:22.633Z,6.50
2019-04-06T16:43:10.992Z,6.40
2019-04-06T16:45:46.887Z,5.77
2019-04-06T16:48:19.556Z,4.70
2019-04-06T16:50:50.226Z,5.57
2019-04-06T16:53:28.774Z,4.83
2019-04-06T16:56:13.319Z,6.30
2019-04-06T16:58:49.113Z,5.60
2019-04-06T17:01:21.825Z,5.50
2019-04-06T17:04:10.451Z,5.70
2019-04-06T17:06:42.997Z,6.50
2019-04-06T17:09:16.860Z,6.50
2019-04-06T17:11:52.306Z,6.83
2019-04-06T17:14:34.973Z,6.90
2019-04-06T17:17:23.663Z,5.87
2019-04-06T17:20:12.535Z,5.50
2019-04-06T17:22:45.047Z,6.43
2019-04-06T17:25:20.473Z,7.73
2019-04-06T17:27:55.969Z,7.10
2019-04-06T17:30:26.981Z,7.00
2019-04-06T17:33:16.477Z,7.60
2019-04-06T17:35:56.568Z,7.10
2019-04-06T17:38:29.425Z,8.50
2019-04-06T17:41:00.252Z,8.70
2019-04-06T17:43:48.395Z,7.95
2019-04-06T17:46:27.887Z,9.20
2019-04-06T17:49:16.953Z,9.63
2019-04-06T17:51:49.639Z,8.90
2019-04-06T17:54:27.699Z,7.87
2019-04-06T17:57:00.436Z,8.90
2019-04-06T17:59:49.604Z,8.25
2019-04-06T18:02:47.787Z,8.55
2019-04-06T18:05:30.537Z,8.90
2019-04-06T18:08:03.083Z,8.25
2019-04-06T18:10:38.356Z,8.20
2019-04-06T18:13:13.907Z,7.65
2019-04-06T18:15:44.855Z,7.10
2019-04-06T18:18:16.306Z,8.45
2019-04-06T18:20:47.362Z,8.30
2019-04-06T18:23:18.747Z,8.03
2019-04-06T18:25:49.820Z,10.50
2019-04-06T18:28:20.868Z,9.40
2019-04-06T18:31:10.371Z,9.43
2019-04-06T18:33:41.535Z,7.53
2019-04-06T18:36:13.024Z,9.35
2019-04-06T18:38:45.656Z,8.25
2019-04-06T18:41:16.640Z,7.85
2019-04-06T18:43:47.697Z,7.20
2019-04-06T18:46:19.060Z,16.45
2019-04-06T18:48:50.311Z,9.13
2019-04-06T18:51:21.271Z,7.30
2019-04-06T18:53:52.930Z,7.42
2019-04-06T18:56:24.401Z,7.75
2019-04-06T18:58:55.463Z,8.18
2019-04-06T19:01:26.468Z,7.45
2019-04-06T19:03:57.658Z,6.72
2019-04-06T19:06:28.634Z,7.90
2019-04-06T19:08:59.663Z,7.72
2019-04-06T19:11:30.676Z,7.15
2019-04-06T19:14:01.709Z,7.35
2019-04-06T19:16:33.053Z,7.62
2019-04-06T19:19:04.119Z,8.75
2019-04-06T19:21:35.098Z,8.40
2019-04-06T19:24:06.148Z,8.38
2019-04-06T19:26:38.185Z,8.00
2019-04-06T19:29:09.727Z,8.25
2019-04-06T19:31:40.995Z,7.25
2019-04-06T19:34:12.379Z,7.05
2019-04-06T19:36:43.558Z,6.72
2019-04-06T19:39:15.406Z,6.67
2019-04-06T19:41:46.373Z,17.25
2019-04-06T19:44:19.277Z,12.05
2019-04-06T19:46:50.447Z,7.00
2019-04-06T19:49:21.455Z,6.65
2019-04-06T19:51:52.428Z,6.45
2019-04-06T19:54:23.362Z,7.08
2019-04-06T19:56:54.328Z,7.55
2019-04-06T19:59:25.267Z,5.65
2019-04-06T20:01:56.242Z,7.42
2019-04-06T20:04:27.190Z,7.08
2019-04-06T20:06:58.144Z,7.08
2019-04-06T20:09:29.233Z,7.05
2019-04-06T20:12:05.680Z,6.80
2019-04-06T20:14:32.893Z,7.00
2019-04-06T20:17:04.235Z,5.90
2019-04-06T20:19:35.331Z,6.72
2019-04-06T20:22:06.398Z,6.83
2019-04-06T20:24:37.402Z,6.65
2019-04-06T20:27:08.467Z,6.17
2019-04-06T20:29:40.869Z,6.33
2019-04-06T20:32:12.136Z,6.10
2019-04-06T20:34:43.549Z,6.42
2019-04-06T20:37:16.073Z,6.08
2019-04-06T20:39:47.110Z,7.58
2019-04-06T20:42:18.306Z,6.33
2019-04-06T20:44:49.518Z,7.70
2019-04-06T20:47:21.539Z,8.85
2019-04-06T20:49:53.845Z,7.53
2019-04-06T20:52:25.133Z,8.20
2019-04-06T20:54:56.463Z,9.75
2019-04-06T20:57:27.589Z,8.10
2019-04-06T20:59:58.599Z,8.48
2019-04-06T21:02:29.636Z,8.33
2019-04-06T21:05:00.622Z,7.97
2019-04-06T21:07:31.617Z,7.60
2019-04-06T21:10:03.194Z,6.85
2019-04-06T21:12:34.515Z,7.53
2019-04-06T21:15:17.036Z,30.40
2019-04-06T21:17:40.220Z,21.37
2019-04-06T21:20:11.771Z,7.12
2019-04-06T21:22:43.138Z,6.60
2019-04-06T21:25:14.804Z,6.03
2019-04-06T21:27:46.446Z,6.90
2019-04-06T21:30:18.153Z,7.85
2019-04-06T21:32:49.153Z,5.87
2019-04-06T21:35:20.112Z,7.75
2019-04-06T21:37:51.556Z,5.83
2019-04-06T21:40:22.666Z,6.62
2019-04-06T21:42:53.655Z,7.17
2019-04-06T21:45:25.111Z,6.75
2019-04-06T21:47:57.706Z,6.15
2019-04-06T21:50:28.672Z,5.58
2019-04-06T21:52:59.642Z,4.97
2019-04-06T21:55:31.169Z,5.45
2019-04-06T21:58:02.118Z,5.05
2019-04-06T22:00:38.428Z,4.80
2019-04-06T22:03:11.217Z,5.10
2019-04-06T22:05:43.333Z,4.92
2019-04-06T22:08:14.258Z,5.03
2019-04-06T22:10:47.336Z,4.55
2019-04-06T22:13:18.513Z,4.35
2019-04-06T22:15:49.473Z,4.60
2019-04-06T22:18:20.471Z,3.92
2019-04-06T22:20:51.475Z,4.28
2019-04-06T22:23:22.643Z,4.62
2019-04-06T22:25:53.743Z,4.30
2019-04-06T22:28:24.673Z,4.65
2019-04-06T22:30:55.645Z,4.30
2019-04-06T22:33:26.591Z,5.30
2019-04-06T22:35:58.665Z,5.33
2019-04-06T22:38:29.645Z,4.55
2019-04-06T22:41:01.219Z,4.87
2019-04-06T22:43:32.225Z,5.05
2019-04-06T22:46:03.206Z,4.25
2019-04-06T22:48:34.684Z,4.05
2019-04-06T22:51:05.871Z,5.42
2019-04-06T22:53:36.802Z,4.60
2019-04-06T22:56:07.838Z,4.33
2019-04-06T22:58:38.797Z,5.70
2019-04-06T23:01:11.660Z,4.72
2019-04-06T23:03:53.322Z,5.15
2019-04-06T23:06:25.852Z,5.10
2019-04-06T23:08:57.311Z,4.80
2019-04-06T23:11:28.828Z,3.87
2019-04-06T23:13:59.757Z,3.60
2019-04-06T23:16:31.451Z,5.08
2019-04-06T23:19:02.572Z,4.20
2019-04-06T23:21:33.603Z,4.08
2019-04-06T23:24:04.865Z,4.55
2019-04-06T23:26:36.155Z,4.55
2019-04-06T23:29:07.269Z,4.12
2019-04-06T23:31:38.525Z,5.25
2019-04-06T23:34:10.158Z,5.55
2019-04-06T23:36:41.969Z,5.22
2019-04-06T23:39:13.548Z,5.10
2019-04-06T23:41:44.922Z,4.20
2019-04-06T23:44:15.830Z,5.25
2019-04-06T23:46:46.883Z,5.20
2019-04-06T23:49:17.920Z,4.72
2019-04-06T23:51:49.088Z,6.12
2019-04-06T23:54:20.523Z,5.10
2019-04-06T23:56:51.562Z,4.55
2019-04-06T23:59:23.894Z,5.40
